Latest Weather Observations for Richmond

IDQ60801

Issued at 8:13 am EST Monday 3 October 2022 (issued every 10 minutes, with the page automatically refreshed every 10 minutes)

About weather observations | Map of weather stations | Latest weather observations for QLD | Other Formats
Station Details ID: 030161 Name: RICHMOND AIRPORT Lat: -20.70 Lon: 143.11 Height: 206.3 m
Data from the previous 72 hours. | See also: Recent months at Richmond
Date/Time
EST
Temp
°C
App
Temp
°C
Dew
Point
°C
Rel
Hum
%
Delta-T
°C
Wind Press
QNH
hPa
Press
MSL
hPa
Rain since
9am
mm
Dir  Spd
km/h
Gust
km/h
Spd
kts
Gust
kts
03/08:00am 24.4 22.1 11.7 45 7.3 ENE 15 20 8 11 1012.7 1011.4 0.0
03/07:30am 22.1 20.6 10.6 48 6.4 E 9 13 5 7 1012.3 1011.0 0.0
03/07:00am 22.0 19.0 9.2 44 6.9 E 15 19 8 10 1011.7 1010.4 0.0
03/06:30am 20.6 16.3 7.2 42 6.9 E 19 24 10 13 1011.1 1009.8 0.0
03/06:00am 19.2 15.9 6.3 43 6.5 ESE 13 17 7 9 1011.3 1010.0 0.0
03/05:30am 18.9 15.5 6.1 43 6.4 SE 13 17 7 9 1011.1 1009.8 0.0
03/05:00am 19.1 15.6 5.6 41 6.7 E 13 15 7 8 1010.8 1009.5 0.0
03/04:30am 19.5 17.2 5.6 40 6.9 ESE 7 9 4 5 1010.6 1009.3 0.0
03/04:00am 20.4 17.2 5.2 37 7.6 E 11 11 6 6 1010.3 1009.0 0.0
03/03:30am 19.6 16.7 4.5 37 7.3 ESE 9 11 5 6 1010.6 1009.3 0.0
03/03:00am 21.1 18.0 5.5 36 7.8 ESE 11 13 6 7 1010.2 1008.9 0.0
03/02:30am 21.9 18.3 4.9 33 8.5 SE 13 17 7 9 1010.3 1009.0 0.0
03/02:00am 23.9 19.2 5.3 30 9.5 ESE 19 24 10 13 1010.5 1009.2 0.0
03/01:30am 24.1 19.2 5.0 29 9.7 ESE 20 26 11 14 1010.6 1009.3 0.0
03/01:00am 24.6 19.7 4.9 28 10.0 ESE 20 24 11 13 1010.8 1009.5 0.0
03/12:30am 24.6 19.8 4.9 28 10.0 ESE 19 22 10 12 1011.0 1009.7 0.0
03/12:00am 24.8 20.5 5.1 28 10.1 ESE 17 20 9 11 1011.2 1009.9 0.0
 
Date/Time
EST
Temp
°C
App
Temp
°C
Dew
Point
°C
Rel
Hum
%
Delta-T
°C
Wind Press
QNH
hPa
Press
MSL
hPa
Rain since
9am
mm
Dir  Spd
km/h
Gust
km/h
Spd
kts
Gust
kts
02/11:30pm 25.4 20.7 5.1 27 10.4 SE 19 20 10 11 1011.3 1010.0 0.0
02/11:00pm 26.0 21.3 5.0 26 10.8 SE 19 22 10 12 1011.4 1010.1 0.0
02/10:30pm 25.6 21.2 4.7 26 10.6 SE 17 20 9 11 1011.7 1010.4 0.0
02/10:00pm 24.7 20.7 5.0 28 10.0 SE 15 17 8 9 1011.8 1010.5 0.0
02/09:30pm 25.1 21.4 4.3 26 10.5 SSE 13 17 7 9 1011.8 1010.5 0.0
02/09:00pm 26.2 23.9 5.7 27 10.7 SSE 7 9 4 5 1011.6 1010.3 0.0
02/08:30pm 26.9 24.1 5.2 25 11.2 SSE 9 13 5 7 1011.0 1009.7 0.0
02/08:00pm 27.4 25.1 5.6 25 11.4 S 7 9 4 5 1010.8 1009.5 0.0
02/07:57pm 27.6 25.3 5.8 25 11.4 S 7 9 4 5 1010.7 1009.4 0.0
02/07:42pm 27.1 25.0 6.0 26 11.1 S 6 7 3 4 1010.4 1009.1 0.0
02/07:30pm 27.8 25.9 7.6 28 10.9 S 7 9 4 5 1010.2 1008.9 0.0
02/07:00pm 29.5 26.9 6.2 23 12.5 S 9 9 5 5 1009.8 1008.5 0.0
02/06:30pm 30.9 27.5 6.0 21 13.4 SSW 13 15 7 8 1009.2 1007.9 0.0
02/06:00pm 32.2 29.3 6.4 20 14.1 SSW 11 17 6 9 1008.7 1007.4 0.0
02/05:30pm 32.8 30.8 6.2 19 14.5 SSE 6 11 3 6 1008.5 1007.2 0.0
02/05:00pm 33.3 30.0 6.6 19 14.7 SSE 13 19 7 10 1008.4 1007.1 0.0
02/04:30pm 34.5 31.3 6.7 18 15.4 SW 13 19 7 10 1008.2 1006.9 0.0
02/04:00pm 33.9 32.4 7.0 19 14.9 SW 4 13 2 7 1008.2 1006.9 0.0
02/03:30pm 33.5 32.2 7.5 20 14.5 W 4 9 2 5 1008.4 1007.1 0.0
02/03:00pm 33.4 30.7 7.4 20 14.5 ENE 11 22 6 12 1008.6 1007.3 0.0
02/02:30pm 34.6 32.7 7.6 19 15.1 E 7 13 4 7 1008.7 1007.4 0.0
02/02:00pm 33.9 31.7 7.8 20 14.7 ENE 9 13 5 7 1009.2 1007.9 0.0
02/01:30pm 33.3 31.1 8.0 21 14.2 NW 9 17 5 9 1009.7 1008.4 0.0
02/01:00pm 33.6 30.7 8.3 21 14.3 S 13 22 7 12 1010.2 1008.9 0.0
02/12:30pm 33.1 31.4 8.5 22 13.9 S 7 17 4 9 1010.6 1009.3 0.0
02/12:00pm 32.2 30.7 9.1 24 13.1 WNW 7 13 4 7 1011.1 1009.8 0.0
02/11:30am 31.7 30.4 9.8 26 12.5 NNE 7 15 4 8 1011.6 1010.3 0.0
02/11:00am 31.0 29.9 9.8 27 12.1 NNW 6 15 3 8 1012.2 1010.9 0.0
02/10:30am 30.9 30.0 10.8 29 11.7 NNW 6 13 3 7 1012.3 1011.0 0.0
02/10:00am 29.8 28.4 12.3 34 10.3 N 11 19 6 10 1012.7 1011.4 0.0
02/09:30am 28.0 26.9 14.3 43 8.3 NNW 13 19 7 10 1012.8 1011.5 0.0
02/09:00am 26.1 24.6 14.2 47 7.1 N 15 20 8 11 1013.0 1011.7 0.0
02/08:30am 24.4 23.9 14.8 55 5.8 NNE 11 17 6 9 1013.1 1011.8 0.0
02/08:00am 21.9 21.9 14.3 62 4.5 ENE 7 11 4 6 1012.5 1011.2 0.0
02/07:30am 21.3 21.5 14.7 66 3.9 ENE 7 11 4 6 1012.1 1010.8 0.0
02/07:00am 19.6 19.1 13.8 69 3.4 NE 9 13 5 7 1011.7 1010.4 0.0
02/06:30am 18.1 16.8 12.5 70 3.1 ENE 11 13 6 7 1011.3 1010.0 0.0
02/06:00am 17.0 15.1 11.9 72 2.8 NE 13 13 7 7 1011.1 1009.8 0.0
02/05:30am 16.9 15.7 11.6 71 2.9 NE 9 11 5 6 1010.7 1009.4 0.0
02/05:00am 17.8 17.0 11.8 68 3.3 ENE 7 9 4 5 1010.7 1009.4 0.0
02/04:30am 17.7 16.5 11.7 68 3.3 ENE 9 13 5 7 1010.6 1009.3 0.0
02/04:00am 18.2 17.0 11.7 66 3.6 ENE 9 13 5 7 1010.6 1009.3 0.0
02/03:30am 18.5 17.2 11.3 63 4.0 ENE 9 13 5 7 1010.7 1009.4 0.0
02/03:00am 19.3 17.7 11.6 61 4.3 ESE 11 11 6 6 1010.7 1009.4 0.0
02/02:30am 17.5 15.6 10.4 63 3.8 SSE 11 15 6 8 1010.9 1009.6 0.0
02/02:00am 17.3 14.4 9.7 61 4.0 S 15 17 8 9 1011.3 1010.0 0.0
02/01:30am 18.5 17.3 10.3 59 4.4 SE 7 11 4 6 1011.7 1010.4 0.0
02/01:00am 19.9 19.4 10.6 55 5.1 NE 4 11 2 6 1011.8 1010.5 0.0
02/12:30am 20.9 20.5 11.0 53 5.5 NNE 4 6 2 3 1012.0 1010.7 0.0
02/12:00am 21.8 22.1 10.9 50 6.1 CALM 0 4 0 2 1012.1 1010.8 0.0
 
Date/Time
EST
Temp
°C
App
Temp
°C
Dew
Point
°C
Rel
Hum
%
Delta-T
°C
Wind Press
QNH
hPa
Press
MSL
hPa
Rain since
9am
mm
Dir  Spd
km/h
Gust
km/h
Spd
kts
Gust
kts
01/11:30pm 22.0 21.1 10.8 49 6.2 NNE 6 9 3 5 1012.2 1010.9 0.0
01/11:00pm 22.0 20.9 10.5 48 6.4 NNE 7 9 4 5 1012.2 1010.9 0.0
01/10:30pm 22.7 21.3 10.8 47 6.6 NE 9 11 5 6 1012.2 1010.9 0.0
01/10:00pm 22.5 21.2 11.3 49 6.3 N 9 9 5 5 1012.6 1011.3 0.0
01/09:30pm 23.0 22.1 10.8 46 6.8 N 6 7 3 4 1012.5 1011.2 0.0
01/09:00pm 23.7 22.5 10.4 43 7.4 NNE 7 9 4 5 1012.5 1011.2 0.0
01/08:30pm 23.9 22.8 10.6 43 7.4 NNE 7 9 4 5 1012.3 1011.0 0.0
01/08:00pm 24.3 23.1 10.2 41 7.9 N 7 9 4 5 1012.0 1010.7 0.0
01/07:30pm 24.6 23.0 10.1 40 8.1 N 9 11 5 6 1011.9 1010.6 0.0
01/07:00pm 24.8 23.2 10.3 40 8.1 N 9 9 5 5 1011.5 1010.2 0.0
01/06:30pm 25.7 24.5 10.3 38 8.6 NNE 7 7 4 4 1011.4 1010.1 0.0
01/06:00pm 27.5 25.9 8.9 31 10.3 NNE 7 7 4 4 1011.1 1009.8 0.0
01/05:30pm 28.1 26.4 8.4 29 10.8 NE 7 9 4 5 1011.1 1009.8 0.0
01/05:00pm 28.4 27.6 8.1 28 11.1 NNE 2 6 1 3 1011.1 1009.8 0.0
01/04:30pm 28.4 26.5 7.6 27 11.3 NE 7 9 4 5 1011.0 1009.7 0.0
01/04:00pm 28.7 27.0 8.4 28 11.2 NE 7 11 4 6 1010.8 1009.5 0.0
01/03:30pm 28.4 26.8 8.1 28 11.1 ENE 6 9 3 5 1011.0 1009.7 0.0
01/03:00pm 28.7 27.0 8.4 28 11.2 E 7 11 4 6 1011.2 1009.9 0.0
01/02:30pm 28.8 27.7 8.5 28 11.2 S 4 7 2 4 1011.7 1010.4 0.0
01/02:00pm 29.0 27.5 9.2 29 11.1 E 7 13 4 7 1012.0 1010.7 0.0
01/01:30pm 28.3 26.8 9.1 30 10.7 ENE 7 11 4 6 1012.3 1011.0 0.0
01/01:00pm 28.4 26.4 8.7 29 10.9 NNE 9 17 5 9 1013.0 1011.7 0.0
01/12:30pm 28.6 26.4 9.3 30 10.8 ENE 11 20 6 11 1013.1 1011.8 0.0
01/12:00pm 28.2 27.4 11.7 36 9.6 ESE 7 15 4 8 1013.9 1012.7 0.0
01/11:30am 26.8 26.8 12.5 41 8.4 NNE 4 7 2 4 1014.2 1013.0 0.0
01/11:00am 26.1 25.7 12.5 42 7.9 N 6 9 3 5 1014.9 1013.6 0.0
01/10:30am 25.4 25.6 12.9 45 7.3 ENE 4 9 2 5 1015.3 1014.0 0.0
01/10:00am 23.8 23.0 11.8 47 6.8 ENE 7 11 4 6 1015.5 1014.2 0.0
01/09:30am 22.0 19.7 10.5 48 6.4 ESE 13 15 7 8 1015.5 1014.5 0.0
01/09:00am 20.5 18.7 9.4 49 6.0 E 9 11 5 6 1015.8 1014.8 0.0
01/08:30am 20.1 18.1 8.8 48 6.0 E 9 13 5 7 1015.7 1014.7 0.0
01/08:00am 19.1 16.1 7.8 48 5.8 ESE 13 19 7 10 1015.3 1014.3 0.0
01/07:30am 18.4 15.6 6.9 47 5.8 ESE 11 15 6 8 1014.8 1013.8 0.0
01/07:00am 17.6 14.6 5.9 46 5.8 ESE 11 15 6 8 1014.0 1013.1 0.0
01/06:30am 16.8 12.9 5.4 47 5.5 ESE 15 17 8 9 1013.6 1012.7 0.0
01/06:00am 16.6 13.6 5.9 49 5.2 SE 11 13 6 7 1013.2 1012.2 0.0
01/05:30am 16.2 13.5 5.8 50 5.1 SE 9 11 5 6 1012.9 1011.9 0.0
01/05:00am 17.2 14.4 5.2 45 5.8 ESE 9 13 5 7 1012.7 1011.7 0.0
01/04:30am 17.9 13.9 4.8 42 6.3 ESE 15 17 8 9 1012.7 1011.7 0.0
01/04:00am 16.8 13.1 4.5 44 5.9 ESE 13 15 7 8 1012.7 1011.7 0.0
01/03:30am 18.1 14.3 3.9 39 6.8 E 13 19 7 10 1012.9 1011.9 0.0
01/03:00am 18.6 14.1 4.0 38 7.0 ESE 17 22 9 12 1012.6 1011.6 0.0
01/02:30am 18.4 13.9 4.2 39 6.8 SE 17 20 9 11 1012.8 1011.8 0.0
01/02:00am 17.9 13.4 4.1 40 6.6 SE 17 22 9 12 1013.4 1012.5 0.0
01/01:30am 15.8 12.1 4.2 46 5.5 SE 13 15 7 8 1013.4 1012.5 0.0
01/01:00am 17.9 13.0 4.1 40 6.6 ESE 19 20 10 11 1013.6 1012.7 0.0
01/12:30am 17.7 13.9 3.9 40 6.5 ESE 13 17 7 9 1014.6 1013.6 0.0
01/12:00am 19.7 14.7 3.8 35 7.6 ESE 19 24 10 13 1014.1 1013.2 0.0
 
Date/Time
EST
Temp
°C
App
Temp
°C
Dew
Point
°C
Rel
Hum
%
Delta-T
°C
Wind Press
QNH
hPa
Press
MSL
hPa
Rain since
9am
mm
Dir  Spd
km/h
Gust
km/h
Spd
kts
Gust
kts
30/11:30pm 20.5 15.0 4.1 34 8.0 SE 22 28 12 15 1014.5 1013.5 0.0
30/11:00pm 20.6 15.1 4.2 34 8.0 SE 22 24 12 13 1014.7 1013.7 0.0
30/10:30pm 21.1 15.6 3.8 32 8.4 SE 22 28 12 15 1014.9 1013.9 0.0
30/10:00pm 20.2 15.2 3.4 33 8.0 SE 19 22 10 12 1014.7 1013.7 0.0
30/09:30pm 18.2 13.4 2.5 35 7.3 SSE 17 19 9 10 1014.7 1013.7 0.0
30/09:00pm 19.7 14.8 1.7 30 8.3 SSE 17 17 9 9 1014.3 1013.4 0.0
30/08:30pm 20.8 15.8 1.6 28 8.9 SSE 17 19 9 10 1014.0 1013.1 0.0
30/08:00pm 22.6 18.1 2.1 26 9.7 SSE 15 17 8 9 1013.7 1012.8 0.0
30/07:30pm 23.6 19.1 2.4 25 10.2 SSE 15 17 8 9 1013.4 1012.5 0.0
30/07:00pm 25.0 21.0 3.0 24 10.8 SSE 13 15 7 8 1013.1 1012.1 0.0
30/06:30pm 27.6 23.1 1.9 19 12.6 SSE 15 19 8 10 1012.8 1011.8 0.0
30/06:00pm 29.9 26.0 1.4 16 14.1 SE 11 20 6 11 1012.4 1011.4 0.0
30/05:30pm 30.2 26.1 2.5 17 14.0 SE 13 17 7 9 1012.3 1011.3 0.0
30/05:00pm 30.5 26.7 1.9 16 14.3 ESE 11 19 6 10 1012.2 1011.2 0.0
30/04:30pm 31.6 27.8 1.8 15 15.0 E 11 30 6 16 1012.2 1011.2 0.0
30/04:00pm 31.7 27.2 1.9 15 15.0 SE 15 22 8 12 1012.4 1011.4 0.0
30/03:30pm 31.4 27.9 3.4 17 14.4 ENE 11 20 6 11 1012.6 1011.6 0.0
30/03:00pm 31.2 26.4 2.4 16 14.6 E 17 30 9 16 1012.7 1011.7 0.0
30/02:30pm 31.7 27.3 4.5 18 14.3 E 17 28 9 15 1013.1 1012.1 0.0
30/02:00pm 30.9 26.8 4.6 19 13.8 E 15 20 8 11 1013.9 1013.0 0.0
30/01:30pm 30.7 26.5 3.7 18 13.9 SE 15 28 8 15 1014.8 1013.8 0.0
30/01:00pm 30.1 25.8 5.4 21 13.1 ESE 17 26 9 14 1015.3 1014.3 0.0
30/12:30pm 29.3 25.6 4.7 21 12.8 ENE 13 26 7 14 1016.0 1015.0 0.0
30/12:00pm 28.3 24.1 3.9 21 12.4 E 15 24 8 13 1016.8 1015.8 0.0
30/11:30am 27.9 23.1 5.5 24 11.7 E 20 30 11 16 1017.3 1016.3 0.0
30/11:00am 27.5 22.6 5.1 24 11.6 E 20 37 11 20 1017.7 1016.8 0.0
30/10:30am 26.9 20.4 6.3 27 10.9 ESE 30 39 16 21 1018.2 1017.3 0.0
30/10:00am 25.4 18.8 6.1 29 10.0 ESE 30 41 16 22 1018.5 1017.6 0.0
30/09:30am 24.6 17.7 6.4 31 9.5 ESE 32 41 17 22 1018.7 1017.8 0.0
30/09:00am 23.2 17.5 6.9 35 8.5 ESE 26 33 14 18 1018.5 1017.6 0.0
30/08:30am 21.6 17.1 7.1 39 7.5 E 20 26 11 14 1018.3 1017.4 0.0

Other formats

Comma delimited format used in spreadsheet applications
http://www.bom.gov.au/fwo/IDQ60801/IDQ60801.94341.axf

JavaScript Object Notation format (JSON) in row-major order
http://www.bom.gov.au/fwo/IDQ60801/IDQ60801.94341.json

Data quality

Most of these data are generated automatically and are frequently updated. Quality checks on data are not normally performed. It is possible for incorrect values to appear. Refer to information at About Latest Weather Observations and please check the disclaimer before using these data.